Time;durP1;ratioP1;P1;durP2;ratioP2;P2;SDS_P1;SDS_P2;PMS_P1;PMS_P2;Temp;Humidity;BMP_temperature;BMP_pressure;BME280_temperature;BME280_humidity;BME280_pressure;Samples;Min_cycle;Max_cycle;Signal;HPM_P1;HPM_P2
2021/08/21 00:00:20;;;;;;;0.70;0.70;;;;;;;15.24;100.00;-21095.84;5052985;28;20441;-67
2021/08/21 00:02:48;;;;;;;0.70;0.63;;;;;;;15.21;100.00;-21095.16;5038486;28;20461;-68
2021/08/21 00:05:18;;;;;;;0.80;0.70;;;;;;;15.23;100.00;-21095.56;5032856;28;20430;-68
2021/08/21 00:07:46;;;;;;;0.80;0.70;;;;;;;15.17;100.00;-21093.91;5032264;28;20456;-67
2021/08/21 00:10:15;;;;;;;0.80;0.80;;;;;;;15.13;100.00;-21092.81;5050093;28;20823;-68
2021/08/21 00:12:43;;;;;;;0.90;0.90;;;;;;;15.11;100.00;-21092.25;5034427;28;20465;-68
2021/08/21 00:15:13;;;;;;;0.70;0.70;;;;;;;15.08;100.00;-21091.44;5033424;28;20441;-67
2021/08/21 00:17:40;;;;;;;0.80;0.70;;;;;;;15.01;100.00;-21089.50;5033927;28;20413;-68
2021/08/21 00:20:09;;;;;;;0.70;0.60;;;;;;;14.98;100.00;-21088.81;5033545;28;20448;-68
2021/08/21 00:22:36;;;;;;;0.80;0.70;;;;;;;14.96;100.00;-21088.41;5051145;28;20454;-68
2021/08/21 00:25:03;;;;;;;0.80;0.80;;;;;;;14.95;100.00;-21088.13;5051927;28;20436;-68
2021/08/21 00:27:32;;;;;;;0.80;0.80;;;;;;;14.91;100.00;-21087.03;5043552;28;20893;-68
2021/08/21 00:30:00;;;;;;;0.90;0.80;;;;;;;14.87;100.00;-21085.78;5040583;28;20970;-68
2021/08/21 00:32:27;;;;;;;0.80;0.80;;;;;;;14.83;100.00;-21084.84;5049131;28;20892;-68
2021/08/21 00:34:54;;;;;;;0.70;0.70;;;;;;;14.84;100.00;-21085.13;5052137;28;20438;-68
2021/08/21 00:37:21;;;;;;;0.80;0.80;;;;;;;14.87;100.00;-21085.78;5052303;28;20876;-67
2021/08/21 00:39:48;;;;;;;0.80;0.70;;;;;;;14.86;100.00;-21085.53;5051813;28;20439;-66
2021/08/21 00:42:15;;;;;;;1.00;0.83;;;;;;;14.85;100.00;-21085.38;5044611;28;20445;-66
2021/08/21 00:44:44;;;;;;;1.20;1.10;;;;;;;14.83;100.00;-21084.84;5051436;28;20486;-67
2021/08/21 00:47:15;;;;;;;0.90;0.87;;;;;;;14.82;100.00;-21084.56;5053438;28;20811;-66
2021/08/21 00:49:46;;;;;;;0.70;0.70;;;;;;;14.79;100.00;-21083.72;5052118;28;20480;-68
2021/08/21 00:52:35;;;;;;;0.80;0.70;;;;;;;14.75;100.00;-21082.63;5034554;28;20454;-67
2021/08/21 00:55:03;;;;;;;1.43;1.17;;;;;;;14.81;100.00;-21084.28;5031886;28;20516;-68
2021/08/21 00:57:31;;;;;;;0.70;0.70;;;;;;;14.89;100.00;-21086.50;5028103;28;20538;-67
2021/08/21 00:59:59;;;;;;;0.73;0.70;;;;;;;14.85;100.00;-21085.38;5051727;28;20837;-66
2021/08/21 01:02:29;;;;;;;0.70;0.60;;;;;;;14.79;100.00;-21083.59;5049398;28;20456;-66
2021/08/21 01:04:57;;;;;;;0.70;0.70;;;;;;;14.69;100.00;-21081.13;5052096;28;20443;-65
2021/08/21 01:07:33;;;;;;;0.70;0.63;;;;;;;14.62;100.00;-21079.06;5051896;28;20450;-67
2021/08/21 01:10:03;;;;;;;0.80;0.77;;;;;;;14.55;100.00;-21077.28;5035613;28;20543;-67
2021/08/21 01:12:32;;;;;;;0.80;0.77;;;;;;;14.52;100.00;-21076.44;5051052;28;20464;-66
2021/08/21 01:15:01;;;;;;;1.00;0.90;;;;;;;14.55;100.00;-21077.28;5050846;28;20454;-68
2021/08/21 01:17:31;;;;;;;0.70;0.70;;;;;;;14.56;100.00;-21077.41;5051774;28;20500;-67
2021/08/21 01:20:03;;;;;;;0.77;0.73;;;;;;;14.55;100.00;-21077.13;5036368;28;20520;-68
2021/08/21 01:22:33;;;;;;;0.70;0.70;;;;;;;14.55;100.00;-21077.28;5051195;28;20563;-68
2021/08/21 01:25:13;;;;;;;0.70;0.60;;;;;;;14.49;100.00;-21075.75;5051952;28;20515;-67
2021/08/21 01:27:42;;;;;;;0.70;0.70;;;;;;;14.46;100.00;-21074.91;5037701;28;20467;-69
2021/08/21 01:30:48;;;;;;;0.70;0.70;;;;;;;14.42;100.00;-21073.69;5049050;28;20460;-68
2021/08/21 01:33:27;;;;;;;0.70;0.70;;;;;;;14.40;100.00;-21073.28;5050338;28;20477;-67
2021/08/21 01:35:55;;;;;;;0.83;0.83;;;;;;;14.43;100.00;-21074.09;5040220;28;20484;-68
2021/08/21 01:38:27;;;;;;;0.70;0.70;;;;;;;14.43;100.00;-21074.09;5035276;28;20540;-68
2021/08/21 01:41:13;;;;;;;0.70;0.60;;;;;;;14.41;100.00;-21073.53;5041896;28;20436;-66
2021/08/21 01:43:43;;;;;;;0.70;0.67;;;;;;;14.50;100.00;-21076.03;5036290;28;20941;-67
2021/08/21 01:46:10;;;;;;;0.70;0.70;;;;;;;14.54;100.00;-21076.84;5037977;28;20497;-66
2021/08/21 01:48:51;;;;;;;0.70;0.60;;;;;;;14.59;100.00;-21078.22;5054906;28;20452;-67
2021/08/21 01:51:18;;;;;;;0.70;0.70;;;;;;;14.49;100.00;-21075.75;5055780;28;20794;-65
2021/08/21 01:53:45;;;;;;;0.77;0.70;;;;;;;14.46;100.00;-21074.91;5055836;28;20497;-68
2021/08/21 01:56:13;;;;;;;0.70;0.70;;;;;;;14.44;100.00;-21074.38;5062059;28;20520;-69
2021/08/21 01:58:54;;;;;;;0.70;0.70;;;;;;;14.50;100.00;-21076.03;5042552;28;20452;-68
2021/08/21 02:01:38;;;;;;;0.80;0.70;;;;;;;14.52;100.00;-21076.44;5039330;28;20482;-68
2021/08/21 02:04:26;;;;;;;0.70;0.70;;;;;;;14.54;100.00;-21076.84;5055932;28;20492;-70
2021/08/21 02:06:59;;;;;;;0.70;0.60;;;;;;;14.49;100.00;-21075.59;5054815;28;20461;-68
2021/08/21 02:09:27;;;;;;;0.70;0.60;;;;;;;14.49;100.00;-21075.75;5054026;28;20493;-68
2021/08/21 02:11:56;;;;;;;0.70;0.70;;;;;;;14.54;100.00;-21076.84;5056069;28;20432;-68
2021/08/21 02:14:33;;;;;;;0.70;0.70;;;;;;;14.55;100.00;-21077.28;5054206;28;20475;-68
2021/08/21 02:17:02;;;;;;;0.70;0.60;;;;;;;14.56;100.00;-21077.41;5038113;28;20495;-68
2021/08/21 02:19:39;;;;;;;0.70;0.60;;;;;;;14.60;100.00;-21078.50;5054096;28;20847;-68
2021/08/21 02:22:14;;;;;;;0.80;0.80;;;;;;;14.59;100.00;-21078.38;5052148;28;20445;-68
2021/08/21 02:24:51;;;;;;;0.70;0.60;;;;;;;14.55;100.00;-21077.13;5045488;28;20998;-69
2021/08/21 02:27:24;;;;;;;0.70;0.60;;;;;;;14.55;100.00;-21077.13;5051568;28;20457;-68
2021/08/21 02:29:53;;;;;;;0.70;0.60;;;;;;;14.54;100.00;-21077.00;5034343;28;20455;-68
2021/08/21 02:32:20;;;;;;;0.70;0.70;;;;;;;14.56;100.00;-21077.53;5034254;28;20442;-68
2021/08/21 02:35:08;;;;;;;0.80;0.80;;;;;;;14.51;100.00;-21076.16;5035690;28;20412;-67
2021/08/21 02:37:36;;;;;;;0.80;0.70;;;;;;;14.48;100.00;-21075.34;5022774;28;20440;-68
2021/08/21 02:40:05;;;;;;;0.70;0.70;;;;;;;14.51;100.00;-21076.16;5037935;28;20432;-68
2021/08/21 02:42:32;;;;;;;0.70;0.67;;;;;;;14.49;100.00;-21075.75;5040647;28;20447;-68
2021/08/21 02:45:01;;;;;;;0.80;0.70;;;;;;;14.57;100.00;-21077.81;5044322;28;20965;-68
2021/08/21 02:47:28;;;;;;;1.03;0.97;;;;;;;14.58;100.00;-21077.94;5054888;28;20486;-67
2021/08/21 02:49:55;;;;;;;0.80;0.80;;;;;;;14.68;100.00;-21080.84;5053674;28;20477;-68
2021/08/21 02:52:23;;;;;;;0.70;0.70;;;;;;;14.56;100.00;-21077.41;5055513;28;20429;-67
2021/08/21 02:54:51;;;;;;;0.70;0.70;;;;;;;14.53;100.00;-21076.72;5054016;28;20529;-67
2021/08/21 02:57:18;;;;;;;0.70;0.60;;;;;;;14.54;100.00;-21077.00;5051075;28;20468;-67
2021/08/21 02:59:45;;;;;;;0.83;0.83;;;;;;;14.50;100.00;-21075.88;5030719;28;20457;-67
2021/08/21 03:02:14;;;;;;;0.73;0.70;;;;;;;14.42;100.00;-21073.69;5051928;28;20536;-68
2021/08/21 03:04:45;;;;;;;0.70;0.60;;;;;;;14.47;100.00;-21075.19;5053679;28;20433;-68
2021/08/21 03:07:17;;;;;;;0.80;0.70;;;;;;;14.48;100.00;-21075.47;5037246;28;20457;-68
2021/08/21 03:09:56;;;;;;;1.03;0.93;;;;;;;14.47;100.00;-21075.06;5038850;28;20447;-68
2021/08/21 03:12:34;;;;;;;0.80;0.70;;;;;;;14.47;100.00;-21075.06;5052276;28;20964;-68
2021/08/21 03:15:04;;;;;;;0.70;0.70;;;;;;;14.52;100.00;-21076.44;5053258;28;20946;-69
2021/08/21 03:17:34;;;;;;;0.70;0.70;;;;;;;14.49;100.00;-21075.75;5032818;28;20445;-67
2021/08/21 03:20:01;;;;;;;0.90;0.90;;;;;;;14.46;100.00;-21074.91;5033594;28;20433;-67
2021/08/21 03:22:35;;;;;;;0.70;0.70;;;;;;;14.41;100.00;-21073.41;5033312;28;20436;-68
2021/08/21 03:25:03;;;;;;;0.70;0.70;;;;;;;14.44;100.00;-21074.38;5033282;28;21029;-68
2021/08/21 03:27:31;;;;;;;0.70;0.60;;;;;;;14.44;100.00;-21074.38;5044790;28;20801;-67
2021/08/21 03:29:58;;;;;;;0.70;0.70;;;;;;;14.40;100.00;-21073.13;5033001;28;20449;-67
2021/08/21 03:32:25;;;;;;;0.70;0.70;;;;;;;14.39;100.00;-21072.84;5052209;28;20470;-68
2021/08/21 03:34:56;;;;;;;1.17;1.10;;;;;;;14.42;100.00;-21073.69;5052847;28;20480;-68
2021/08/21 03:37:25;;;;;;;0.70;0.70;;;;;;;14.42;100.00;-21073.81;5052759;28;20449;-67
2021/08/21 03:39:52;;;;;;;0.73;0.73;;;;;;;14.40;100.00;-21073.28;5036402;28;21014;-67
2021/08/21 03:42:19;;;;;;;0.70;0.70;;;;;;;14.28;100.00;-21069.97;5036440;28;20440;-68
2021/08/21 03:44:52;;;;;;;0.70;0.67;;;;;;;14.24;100.00;-21069.00;5052682;28;20499;-66
2021/08/21 03:47:20;;;;;;;0.80;0.77;;;;;;;14.22;100.00;-21068.31;5051970;28;20425;-67
2021/08/21 03:49:47;;;;;;;0.80;0.80;;;;;;;14.09;100.00;-21064.72;5052910;28;20444;-68
2021/08/21 03:52:15;;;;;;;0.70;0.70;;;;;;;14.14;100.00;-21066.09;5052744;28;20436;-68
2021/08/21 03:54:43;;;;;;;0.80;0.70;;;;;;;14.09;100.00;-21064.88;5049774;28;20554;-67
2021/08/21 03:57:13;;;;;;;0.80;0.80;;;;;;;14.06;100.00;-21064.03;5034221;28;20539;-67
2021/08/21 03:59:40;;;;;;;0.70;0.60;;;;;;;14.07;100.00;-21064.31;5044890;28;20508;-68
2021/08/21 04:02:10;;;;;;;0.70;0.70;;;;;;;14.01;100.00;-21062.66;5050659;28;20952;-67
2021/08/21 04:04:37;;;;;;;0.70;0.70;;;;;;;14.00;100.00;-21062.53;5032602;28;20946;-67
2021/08/21 04:07:08;;;;;;;0.80;0.70;;;;;;;13.99;100.00;-21062.25;5033269;28;20865;-69
2021/08/21 04:09:37;;;;;;;0.80;0.73;;;;;;;14.01;100.00;-21062.66;5052183;28;20466;-68
2021/08/21 04:12:05;;;;;;;2.10;1.77;;;;;;;14.04;100.00;-21063.34;5051722;28;20453;-68
2021/08/21 04:14:40;;;;;;;0.70;0.70;;;;;;;14.05;100.00;-21063.63;5035855;28;20835;-68
2021/08/21 04:17:08;;;;;;;0.80;0.70;;;;;;;14.08;100.00;-21064.47;5050394;28;20865;-67
2021/08/21 04:19:36;;;;;;;0.80;0.70;;;;;;;14.14;100.00;-21066.09;5041695;28;20448;-67
2021/08/21 04:22:05;;;;;;;0.70;0.60;;;;;;;14.13;100.00;-21065.97;5040517;28;20538;-67
2021/08/21 04:24:53;;;;;;;0.70;0.70;;;;;;;14.11;100.00;-21065.28;5052588;28;20455;-68
2021/08/21 04:27:23;;;;;;;0.70;0.60;;;;;;;14.13;100.00;-21065.84;5051724;28;20952;-67
2021/08/21 04:29:50;;;;;;;0.70;0.63;;;;;;;14.13;100.00;-21065.84;5031508;28;20967;-68
2021/08/21 04:32:18;;;;;;;0.70;0.60;;;;;;;14.13;100.00;-21065.84;5033304;28;20473;-67
2021/08/21 04:34:46;;;;;;;0.70;0.70;;;;;;;14.15;100.00;-21066.53;5032582;28;20468;-67
2021/08/21 04:37:16;;;;;;;0.70;0.70;;;;;;;14.20;100.00;-21067.91;5032407;28;20441;-67
2021/08/21 04:39:43;;;;;;;0.80;0.80;;;;;;;14.27;100.00;-21069.81;5033487;28;21011;-68
2021/08/21 04:42:16;;;;;;;0.77;0.77;;;;;;;14.31;100.00;-21070.66;5027827;28;20537;-69
2021/08/21 04:44:43;;;;;;;0.70;0.60;;;;;;;14.35;100.00;-21071.88;5031664;28;20474;-68
2021/08/21 04:47:11;;;;;;;0.80;0.80;;;;;;;14.40;100.00;-21073.28;5035338;28;20465;-69
2021/08/21 04:49:41;;;;;;;0.70;0.70;;;;;;;14.45;100.00;-21074.66;5051493;28;20458;-68
2021/08/21 04:52:09;;;;;;;0.80;0.80;;;;;;;14.50;100.00;-21075.88;5047451;28;20453;-68
2021/08/21 04:54:39;;;;;;;0.70;0.70;;;;;;;14.56;100.00;-21077.53;5052162;28;21032;-67
2021/08/21 04:57:07;;;;;;;0.80;0.80;;;;;;;14.64;100.00;-21079.75;5051942;28;20514;-67
2021/08/21 04:59:46;;;;;;;1.20;1.10;;;;;;;14.70;100.00;-21081.41;5051697;28;20538;-67
2021/08/21 05:02:14;;;;;;;0.70;0.70;;;;;;;14.72;100.00;-21081.94;5044923;28;20445;-67
2021/08/21 05:04:41;;;;;;;0.80;0.80;;;;;;;14.77;100.00;-21083.19;5032283;28;20425;-67
2021/08/21 05:07:09;;;;;;;0.70;0.70;;;;;;;14.79;100.00;-21083.72;5032713;28;20506;-67
2021/08/21 05:09:42;;;;;;;0.93;0.90;;;;;;;14.86;100.00;-21085.66;5033442;28;20443;-67
2021/08/21 05:12:17;;;;;;;0.80;0.80;;;;;;;14.98;100.00;-21088.81;5037013;28;20476;-68
2021/08/21 05:15:00;;;;;;;1.00;0.90;;;;;;;15.13;100.00;-21092.94;5040878;28;20471;-67
2021/08/21 05:17:28;;;;;;;0.70;0.60;;;;;;;15.21;100.00;-21095.16;5054527;28;20455;-67
2021/08/21 05:20:16;;;;;;;0.80;0.70;;;;;;;15.29;100.00;-21097.22;5040441;28;20450;-67
2021/08/21 05:23:04;;;;;;;1.10;1.00;;;;;;;15.37;100.00;-21099.41;5047220;28;20980;-67
2021/08/21 05:25:31;;;;;;;0.70;0.70;;;;;;;15.52;100.00;-21103.25;5047932;28;20790;-67
2021/08/21 05:27:59;;;;;;;0.90;0.90;;;;;;;15.61;100.00;-21105.88;5046716;28;20955;-68
2021/08/21 05:30:28;;;;;;;1.20;1.10;;;;;;;15.66;100.00;-21107.13;5045594;28;20431;-67
2021/08/21 05:32:56;;;;;;;0.70;0.60;;;;;;;15.72;100.00;-21108.63;5026791;28;20459;-67
2021/08/21 05:35:23;;;;;;;0.70;0.60;;;;;;;15.83;100.00;-21111.78;5049704;28;21054;-67
2021/08/21 05:37:50;;;;;;;0.70;0.70;;;;;;;15.88;100.00;-21113.16;5046028;28;20458;-67
2021/08/21 05:40:18;;;;;;;0.70;0.60;;;;;;;16.02;100.00;-21116.88;5039128;28;20469;-67
2021/08/21 05:42:45;;;;;;;0.80;0.80;;;;;;;16.06;100.00;-21117.97;5036573;28;20417;-67
2021/08/21 05:45:12;;;;;;;0.80;0.80;;;;;;;16.18;100.00;-21121.13;5039261;28;20426;-67
2021/08/21 05:47:41;;;;;;;0.70;0.70;;;;;;;16.30;100.00;-21124.28;5045568;28;20499;-68
2021/08/21 05:50:08;;;;;;;0.70;0.70;;;;;;;16.39;100.00;-21126.91;5047342;28;20910;-67
2021/08/21 05:52:35;;;;;;;0.70;0.70;;;;;;;16.49;100.00;-21129.38;5046888;28;20825;-68
2021/08/21 05:55:03;;;;;;;1.83;1.33;;;;;;;16.55;100.00;-21131.03;5053120;28;20518;-68
2021/08/21 05:57:41;;;;;;;0.70;0.70;;;;;;;16.62;100.00;-21132.94;5035545;28;20439;-72
2021/08/21 06:00:09;;;;;;;0.80;0.70;;;;;;;16.65;100.00;-21133.75;5051607;28;20439;-70
2021/08/21 06:02:41;;;;;;;0.70;0.60;;;;;;;16.70;100.00;-21135.13;5034954;28;20417;-67
2021/08/21 06:05:13;;;;;;;0.70;0.70;;;;;;;16.81;100.00;-21138.03;5036359;28;20425;-68
2021/08/21 06:07:42;;;;;;;0.70;0.60;;;;;;;16.85;100.00;-21139.13;5038090;28;20471;-66
2021/08/21 06:10:16;;;;;;;0.73;0.70;;;;;;;17.02;100.00;-21143.78;5060776;28;20533;-68
2021/08/21 06:12:43;;;;;;;0.70;0.70;;;;;;;17.00;100.00;-21143.22;5020797;28;20452;-68
2021/08/21 06:15:11;;;;;;;0.70;0.70;;;;;;;17.00;100.00;-21143.22;5044645;28;20797;-68
2021/08/21 06:17:38;;;;;;;0.70;0.70;;;;;;;17.00;100.00;-21143.22;5034915;28;20488;-70
2021/08/21 06:20:07;;;;;;;0.70;0.60;;;;;;;16.97;100.00;-21142.28;5052929;28;20418;-68
2021/08/21 06:22:34;;;;;;;0.70;0.70;;;;;;;16.92;100.00;-21140.91;5044267;28;20910;-66
2021/08/21 06:25:03;;;;;;;0.70;0.60;;;;;;;16.96;100.00;-21142.00;5044572;28;20526;-67
2021/08/21 06:27:30;;;;;;;0.70;0.70;;;;;;;16.94;100.00;-21141.44;5050465;28;20429;-67
2021/08/21 06:29:57;;;;;;;0.70;0.67;;;;;;;16.96;100.00;-21142.13;5050236;28;20431;-68
2021/08/21 06:32:24;;;;;;;0.97;0.80;;;;;;;16.95;100.00;-21141.72;5046386;28;20427;-68
2021/08/21 06:34:52;;;;;;;0.70;0.70;;;;;;;16.99;100.00;-21142.81;5045941;28;20453;-68
2021/08/21 06:37:20;;;;;;;0.70;0.60;;;;;;;17.03;100.00;-21143.91;5043555;28;20758;-69
2021/08/21 06:39:47;;;;;;;0.70;0.70;;;;;;;17.06;100.00;-21144.88;5044899;28;20530;-68
2021/08/21 06:42:15;;;;;;;1.00;0.90;;;;;;;17.10;100.00;-21145.97;5045202;28;20425;-68
2021/08/21 06:44:57;;;;;;;0.70;0.70;;;;;;;17.21;100.00;-21148.84;5032160;28;20930;-68
2021/08/21 06:47:24;;;;;;;0.70;0.70;;;;;;;17.29;100.00;-21151.06;5055201;28;20428;-68
2021/08/21 06:49:51;;;;;;;0.70;0.60;;;;;;;17.41;100.00;-21154.22;5046945;28;20428;-68
2021/08/21 06:52:20;;;;;;;0.70;0.70;;;;;;;17.45;100.00;-21155.16;5035280;28;20950;-69
2021/08/21 06:54:47;;;;;;;0.70;0.70;;;;;;;17.60;100.00;-21159.41;5050016;28;20524;-69
2021/08/21 06:57:14;;;;;;;0.77;0.77;;;;;;;17.81;100.00;-20930.06;5052003;28;20448;-68
2021/08/21 06:59:41;;;;;;;0.70;0.60;;;;;;;17.96;100.00;-20609.47;5054307;28;20842;-68
2021/08/21 07:02:08;;;;;;;0.70;0.60;;;;;;;18.11;100.00;-20349.78;5053939;28;20763;-68
2021/08/21 07:04:35;;;;;;;0.70;0.67;;;;;;;18.26;100.00;-19965.69;5037522;28;20502;-68
2021/08/21 07:07:03;;;;;;;0.70;0.70;;;;;;;18.41;100.00;-19550.66;5036825;28;20483;-68
2021/08/21 07:09:32;;;;;;;0.90;0.73;;;;;;;18.58;100.00;-19148.81;5054933;28;20442;-68
2021/08/21 07:12:00;;;;;;;0.80;0.80;;;;;;;18.83;100.00;-18598.72;5053453;28;20558;-67
2021/08/21 07:14:27;;;;;;;0.70;0.60;;;;;;;19.11;100.00;-17987.44;5054541;28;20493;-68
2021/08/21 07:16:55;;;;;;;0.80;0.80;;;;;;;19.10;100.00;-17687.47;5047752;28;20822;-68
2021/08/21 07:19:23;;;;;;;0.80;0.77;;;;;;;19.29;100.00;-17116.91;5042176;28;20484;-68
2021/08/21 07:21:53;;;;;;;0.80;0.70;;;;;;;19.52;100.00;-16617.94;5035580;28;20508;-68
2021/08/21 07:24:21;;;;;;;0.70;0.60;;;;;;;19.65;100.00;-16427.16;5052811;28;20459;-68
2021/08/21 07:26:49;;;;;;;0.80;0.80;;;;;;;19.75;100.00;-16296.78;5054186;28;20515;-67
2021/08/21 07:29:17;;;;;;;1.17;1.07;;;;;;;19.88;100.00;-16843.78;5053872;28;20772;-68
2021/08/21 07:31:44;;;;;;;0.70;0.60;;;;;;;19.97;100.00;-17716.16;5054155;28;20432;-69
2021/08/21 07:34:11;;;;;;;0.80;0.70;;;;;;;20.11;100.00;-18910.09;5052079;28;20432;-69
2021/08/21 07:36:39;;;;;;;0.80;0.80;;;;;;;20.18;100.00;-20664.59;5033874;28;20467;-68
2021/08/21 07:39:07;;;;;;;0.80;0.80;;;;;;;20.26;100.00;-21230.72;5041936;28;20496;-68
2021/08/21 07:41:35;;;;;;;1.00;0.90;;;;;;;20.44;100.00;-21235.50;5042107;28;20437;-66
2021/08/21 07:44:04;;;;;;;0.70;0.60;;;;;;;20.77;100.00;-21244.25;5035559;28;20404;-68
2021/08/21 07:46:31;;;;;;;0.70;0.60;;;;;;;20.76;100.00;-21243.97;5051325;28;20539;-69
2021/08/21 07:48:58;;;;;;;0.90;0.77;;;;;;;20.96;100.00;-21249.28;5043686;28;20407;-68
2021/08/21 07:51:25;;;;;;;0.70;0.60;;;;;;;21.14;100.00;-21254.19;5042063;28;20903;-68
2021/08/21 07:53:52;;;;;;;1.23;1.13;;;;;;;21.41;100.00;-21261.28;5051844;28;20488;-67
2021/08/21 07:56:19;;;;;;;0.80;0.77;;;;;;;21.63;100.00;-21267.28;5042783;28;20449;-68
2021/08/21 07:58:46;;;;;;;1.13;1.03;;;;;;;21.86;100.00;-21273.28;5041197;28;20566;-67
2021/08/21 08:01:16;;;;;;;1.00;0.83;;;;;;;22.14;100.00;-21280.94;5053605;28;20494;-70
2021/08/21 08:03:45;;;;;;;1.13;1.03;;;;;;;22.27;100.00;-21284.31;5035419;28;20772;-68
2021/08/21 08:06:12;;;;;;;1.00;0.80;;;;;;;22.17;100.00;-21281.75;5041711;28;20429;-68
2021/08/21 08:08:39;;;;;;;0.80;0.70;;;;;;;22.33;100.00;-21285.81;5038774;28;20475;-68
2021/08/21 08:11:07;;;;;;;0.80;0.70;;;;;;;22.57;100.00;-21292.38;5036617;28;20440;-68
2021/08/21 08:13:34;;;;;;;0.70;0.60;;;;;;;23.13;100.00;-21307.19;5037510;28;20425;-68
2021/08/21 08:16:01;;;;;;;1.00;0.90;;;;;;;23.32;100.00;-21312.22;5039828;28;20831;-68
2021/08/21 08:18:29;;;;;;;0.77;0.67;;;;;;;23.30;100.00;-21311.69;5033672;28;20425;-68
2021/08/21 08:20:56;;;;;;;0.80;0.80;;;;;;;23.80;100.00;-21325.00;5039055;28;20768;-68
2021/08/21 08:23:23;;;;;;;0.80;0.63;;;;;;;24.09;100.00;-21332.88;5043498;28;20823;-68
2021/08/21 08:25:50;;;;;;;0.80;0.60;;;;;;;24.29;100.00;-21338.03;5041388;28;20931;-65
2021/08/21 08:28:18;;;;;;;0.70;0.60;;;;;;;24.30;100.00;-21338.31;5045529;28;20438;-68
2021/08/21 08:30:46;;;;;;;0.70;0.60;;;;;;;24.39;100.00;-21340.63;5043220;28;20505;-67
2021/08/21 08:33:13;;;;;;;1.00;0.90;;;;;;;24.39;100.00;-21340.78;5040749;28;20440;-68
2021/08/21 08:35:41;;;;;;;0.80;0.80;;;;;;;24.08;100.00;-21332.63;5041197;28;20539;-68
2021/08/21 08:38:09;;;;;;;0.70;0.60;;;;;;;23.99;100.00;-21330.16;5032315;28;20864;-68
2021/08/21 08:40:36;;;;;;;0.70;0.60;;;;;;;23.70;100.00;-21322.28;5038839;28;20436;-68
2021/08/21 08:43:04;;;;;;;0.70;0.60;;;;;;;23.70;100.00;-21322.28;5053486;28;20499;-69
2021/08/21 08:45:31;;;;;;;0.70;0.60;;;;;;;23.83;100.00;-21325.81;5051757;28;20443;-68
2021/08/21 08:47:59;;;;;;;0.80;0.63;;;;;;;24.05;100.00;-21331.81;5056116;28;20451;-68
2021/08/21 08:50:27;;;;;;;0.80;0.60;;;;;;;24.03;100.00;-21331.25;5056244;28;20436;-67
2021/08/21 08:52:55;;;;;;;0.70;0.60;;;;;;;24.01;100.00;-21330.72;5057127;28;20478;-68
2021/08/21 08:55:22;;;;;;;1.10;1.00;;;;;;;24.22;100.00;-21336.16;5048620;28;20794;-68
2021/08/21 08:57:52;;;;;;;1.47;1.37;;;;;;;24.50;100.00;-21343.63;5043677;28;20436;-69
2021/08/21 09:00:24;;;;;;;0.70;0.50;;;;;;;24.69;100.00;-21348.63;5054850;28;20447;-68
2021/08/21 09:02:53;;;;;;;0.70;0.60;;;;;;;25.32;100.00;-21365.47;5056606;28;20455;-69
2021/08/21 09:05:23;;;;;;;0.70;0.60;;;;;;;25.73;100.00;-21376.31;5056699;28;20927;-68
2021/08/21 09:07:52;;;;;;;0.80;0.70;;;;;;;26.32;100.00;-21392.00;5053437;28;20499;-68
2021/08/21 09:10:23;;;;;;;0.77;0.60;;;;;;;27.64;100.00;-21427.03;5055636;28;20432;-68
2021/08/21 09:13:04;;;;;;;1.67;1.00;;;;;;;28.03;100.00;-21437.16;5050355;28;20950;-68
2021/08/21 09:15:36;;;;;;;0.80;0.60;;;;;;;27.92;100.00;-21434.47;5047555;28;20467;-68
2021/08/21 09:18:08;;;;;;;0.70;0.50;;;;;;;28.66;100.00;-21453.91;5057036;28;20420;-68
2021/08/21 09:20:57;;;;;;;1.20;0.80;;;;;;;28.70;100.00;-21454.84;5056990;28;20419;-66
2021/08/21 09:23:26;;;;;;;0.70;0.50;;;;;;;28.96;100.00;-21461.84;5046739;28;20468;-69
2021/08/21 09:26:04;;;;;;;0.83;0.70;;;;;;;29.48;100.00;-21475.47;5037937;28;20429;-68
2021/08/21 09:28:32;;;;;;;0.70;0.50;;;;;;;29.22;100.00;-21468.75;5039407;28;20477;-68
2021/08/21 09:31:06;;;;;;;0.80;0.60;;;;;;;29.30;100.00;-21470.88;5054452;28;20485;-66
2021/08/21 09:33:34;;;;;;;1.00;0.80;;;;;;;29.43;100.00;-21474.25;5055575;28;20404;-68
2021/08/21 09:36:02;;;;;;;2.10;0.70;;;;;;;29.15;100.00;-21466.72;5048834;28;20491;-69
2021/08/21 09:38:30;;;;;;;0.90;0.63;;;;;;;29.50;100.00;-21476.00;5036035;28;20460;-68
2021/08/21 09:41:00;;;;;;;0.73;0.50;;;;;;;28.57;100.00;-21451.63;5036630;28;20519;-68
2021/08/21 09:43:31;;;;;;;0.80;0.50;;;;;;;28.93;100.00;-21460.91;5051671;28;20956;-69
2021/08/21 09:46:25;;;;;;;0.80;0.53;;;;;;;28.88;100.00;-21459.84;5035390;28;20437;-69
2021/08/21 09:49:04;;;;;;;1.00;0.50;;;;;;;29.27;100.00;-21470.09;5036812;28;21017;-68
2021/08/21 09:51:43;;;;;;;0.70;0.50;;;;;;;29.03;100.00;-21463.63;5054954;28;20470;-69
2021/08/21 09:54:14;;;;;;;0.90;0.70;;;;;;;29.74;100.00;-21482.47;5054558;28;20448;-68
2021/08/21 09:56:44;;;;;;;1.17;1.00;;;;;;;29.52;100.00;-21476.53;5056202;28;20452;-68
2021/08/21 09:59:11;;;;;;;0.90;0.60;;;;;;;30.20;100.00;-21494.59;5051912;28;20928;-68
2021/08/21 10:01:39;;;;;;;0.90;0.70;;;;;;;30.37;100.00;-21498.91;5055638;28;20444;-68
2021/08/21 10:04:06;;;;;;;0.80;0.60;;;;;;;29.96;100.00;-21488.25;5045585;28;20544;-68
2021/08/21 10:06:33;;;;;;;0.80;0.50;;;;;;;30.04;100.00;-21490.28;5053551;28;20476;-68
2021/08/21 10:09:10;;;;;;;0.80;0.60;;;;;;;30.13;100.00;-21492.56;5056074;28;20542;-68
2021/08/21 10:11:38;;;;;;;1.17;1.07;;;;;;;31.36;100.00;-21524.97;5049109;28;20776;-69
2021/08/21 10:14:07;;;;;;;0.80;0.57;;;;;;;30.52;100.00;-21502.94;5034506;28;20452;-68
2021/08/21 10:16:36;;;;;;;0.80;0.50;;;;;;;30.39;100.00;-21499.44;5048041;28;20475;-69
2021/08/21 10:19:03;;;;;;;0.80;0.50;;;;;;;30.70;100.00;-21507.63;5055377;28;20415;-69
2021/08/21 10:21:30;;;;;;;1.40;0.60;;;;;;;30.23;100.00;-21495.25;5055240;28;20466;-68
2021/08/21 10:23:58;;;;;;;1.10;0.60;;;;;;;31.19;100.00;-21520.66;5056030;28;20459;-70
2021/08/21 10:26:31;;;;;;;1.10;0.87;;;;;;;31.09;100.00;-21517.97;5055830;28;20902;-69
2021/08/21 10:28:59;;;;;;;0.93;0.60;;;;;;;30.93;100.00;-21513.69;5052131;28;20439;-68
2021/08/21 10:31:36;;;;;;;0.80;0.50;;;;;;;30.89;100.00;-21512.75;5045828;28;20486;-71
2021/08/21 10:34:04;;;;;;;0.83;0.60;;;;;;;31.35;100.00;-21524.84;5035901;28;20889;-69
2021/08/21 10:36:48;;;;;;;0.90;0.60;;;;;;;31.16;100.00;-21519.88;5035942;28;20475;-68
2021/08/21 10:39:21;;;;;;;1.03;0.80;;;;;;;30.26;100.00;-21496.19;5055409;28;20543;-69
2021/08/21 10:41:50;;;;;;;0.80;0.50;;;;;;;30.18;100.00;-21493.91;5055696;28;20915;-69
2021/08/21 10:44:41;;;;;;;0.80;0.50;;;;;;;30.98;100.00;-21515.03;5054160;28;20966;-69
2021/08/21 10:47:38;;;;;;;0.80;0.50;;;;;;;30.74;100.00;-21508.84;5054539;28;20446;-69
2021/08/21 10:50:33;;;;;;;0.80;0.60;;;;;;;31.11;100.00;-21518.53;5045507;28;20502;-68
2021/08/21 10:53:05;;;;;;;0.80;0.60;;;;;;;31.74;100.00;-21535.16;5015713;28;20483;-71
2021/08/21 10:55:38;;;;;;;0.90;0.73;;;;;;;31.95;100.00;-21540.53;5054961;28;20459;-70
2021/08/21 10:58:08;;;;;;;1.20;0.67;;;;;;;31.50;100.00;-21528.72;5054665;28;20494;-71
2021/08/21 11:00:55;;;;;;;0.80;0.50;;;;;;;31.42;100.00;-21526.59;5054082;28;20795;-69
2021/08/21 11:03:47;;;;;;;0.80;0.50;;;;;;;31.92;100.00;-21539.72;5050943;28;20522;-70
2021/08/21 11:06:16;;;;;;;1.30;1.17;;;;;;;32.09;100.00;-21544.28;5035058;28;20456;-69
2021/08/21 11:08:58;;;;;;;0.80;0.60;;;;;;;31.45;100.00;-21527.38;5044775;28;20517;-71
2021/08/21 11:11:38;;;;;;;0.80;0.50;;;;;;;30.88;100.00;-21512.47;5033732;28;20495;-71
2021/08/21 11:14:08;;;;;;;0.80;0.50;;;;;;;31.25;100.00;-21522.28;5034624;28;20909;-72
2021/08/21 11:16:46;;;;;;;0.90;0.63;;;;;;;31.18;100.00;-21520.25;5050627;28;20947;-72
2021/08/21 11:19:33;;;;;;;0.80;0.60;;;;;;;30.86;100.00;-21511.81;5053906;28;20458;-73
2021/08/21 11:22:22;;;;;;;0.80;0.50;;;;;;;30.53;100.00;-21503.19;5054519;28;20499;-72
2021/08/21 11:25:11;;;;;;;0.80;0.50;;;;;;;31.15;100.00;-21519.47;5053371;28;20466;-71
2021/08/21 11:27:44;;;;;;;0.80;0.60;;;;;;;31.36;100.00;-21524.97;5045683;28;20443;-72
2021/08/21 11:30:21;;;;;;;0.80;0.50;;;;;;;31.01;100.00;-21515.84;5047014;28;20436;-72
2021/08/21 11:33:00;;;;;;;0.80;0.50;;;;;;;30.46;100.00;-21501.44;5053266;28;20866;-72